createdAt,value
2022-08-12T00:00:09.188Z,23.90
2022-08-12T00:02:55.417Z,23.80
2022-08-12T00:05:58.310Z,23.70
2022-08-12T00:08:54.716Z,23.70
2022-08-12T00:11:40.509Z,23.70
2022-08-12T00:14:26.119Z,23.60
2022-08-12T00:17:11.684Z,23.60
2022-08-12T00:19:57.365Z,23.60
2022-08-12T00:22:42.812Z,23.60
2022-08-12T00:26:19.660Z,23.50
2022-08-12T00:28:34.661Z,23.50
2022-08-12T00:31:20.141Z,23.50
2022-08-12T00:34:05.569Z,23.50
2022-08-12T00:36:50.900Z,23.40
2022-08-12T00:39:36.479Z,23.40
2022-08-12T00:42:13.042Z,23.30
2022-08-12T00:44:45.468Z,23.30
2022-08-12T00:47:24.843Z,23.20
2022-08-12T00:49:54.552Z,23.20
2022-08-12T00:52:21.967Z,23.20
2022-08-12T00:54:57.474Z,23.20
2022-08-12T00:57:38.465Z,23.20
2022-08-12T01:00:11.001Z,23.10
2022-08-12T01:02:40.563Z,23.10
2022-08-12T01:05:33.472Z,23.10
2022-08-12T01:08:19.049Z,23.00
2022-08-12T01:11:05.847Z,23.00
2022-08-12T01:13:39.126Z,22.90
2022-08-12T01:16:08.076Z,22.90
2022-08-12T01:18:36.912Z,22.90
2022-08-12T01:21:34.127Z,22.90
2022-08-12T01:24:30.390Z,22.80
2022-08-12T01:26:55.255Z,22.80
2022-08-12T01:29:28.536Z,22.70
2022-08-12T01:32:05.070Z,22.70
2022-08-12T01:34:37.347Z,22.70
2022-08-12T01:37:07.887Z,22.60
2022-08-12T01:40:34.439Z,22.60
2022-08-12T01:42:39.539Z,22.60
2022-08-12T01:45:07.472Z,22.60
2022-08-12T01:48:18.592Z,22.60
2022-08-12T01:51:07.684Z,22.50
2022-08-12T01:53:53.264Z,22.50
2022-08-12T01:56:24.408Z,22.50
2022-08-12T01:59:13.079Z,22.40
2022-08-12T02:01:41.582Z,22.40
2022-08-12T02:04:42.365Z,22.40
2022-08-12T02:07:56.781Z,22.30
2022-08-12T02:11:13.898Z,22.30
2022-08-12T02:14:02.010Z,22.30
2022-08-12T02:16:56.522Z,22.20
2022-08-12T02:19:50.987Z,22.20
2022-08-12T02:22:30.111Z,22.10
2022-08-12T02:25:05.274Z,22.10
2022-08-12T02:27:40.039Z,22.10
2022-08-12T02:30:12.601Z,22.10
2022-08-12T02:32:42.141Z,22.10
2022-08-12T02:35:24.253Z,22.10
2022-08-12T02:37:54.112Z,22.00
2022-08-12T02:40:21.898Z,22.00
2022-08-12T02:42:55.673Z,22.00
2022-08-12T02:45:31.109Z,21.90
2022-08-12T02:48:04.792Z,21.90
2022-08-12T02:50:36.649Z,21.90
2022-08-12T02:53:04.363Z,21.90
2022-08-12T02:55:36.123Z,21.90
2022-08-12T02:58:09.234Z,21.90
2022-08-12T03:00:40.369Z,21.80
2022-08-12T03:03:10.283Z,21.80
2022-08-12T03:05:45.136Z,21.80
2022-08-12T03:08:23.431Z,21.80
2022-08-12T03:11:14.531Z,21.80
2022-08-12T03:13:47.224Z,21.80
2022-08-12T03:16:14.723Z,21.70
2022-08-12T03:18:45.761Z,21.70
2022-08-12T03:21:16.741Z,21.70
2022-08-12T03:23:45.875Z,21.70
2022-08-12T03:26:14.566Z,21.70
2022-08-12T03:28:51.014Z,21.70
2022-08-12T03:31:33.646Z,21.70
2022-08-12T03:34:14.291Z,21.70
2022-08-12T03:36:42.564Z,21.70
2022-08-12T03:39:17.078Z,21.70
2022-08-12T03:41:52.803Z,21.60
2022-08-12T03:44:38.020Z,21.60
2022-08-12T03:47:45.647Z,21.60
2022-08-12T03:50:31.406Z,21.50
2022-08-12T03:53:16.871Z,21.50
2022-08-12T03:56:02.276Z,21.40
2022-08-12T03:58:47.720Z,21.40
2022-08-12T04:01:14.644Z,21.40
2022-08-12T04:03:53.708Z,21.40
2022-08-12T04:06:34.277Z,21.40
2022-08-12T04:09:01.397Z,21.40
2022-08-12T04:11:47.640Z,21.30
2022-08-12T04:14:20.632Z,21.30
2022-08-12T04:16:51.466Z,21.30
2022-08-12T04:19:20.322Z,21.30
2022-08-12T04:22:01.132Z,21.30
2022-08-12T04:24:38.015Z,21.30
2022-08-12T04:27:09.834Z,21.20
2022-08-12T04:30:29.981Z,21.20
2022-08-12T04:32:26.529Z,21.20
2022-08-12T04:34:53.781Z,21.20
2022-08-12T04:37:21.610Z,21.20
2022-08-12T04:39:48.847Z,21.20
2022-08-12T04:42:16.098Z,21.20
2022-08-12T04:44:43.255Z,21.20
2022-08-12T04:47:14.277Z,21.20
2022-08-12T04:49:44.469Z,21.10
2022-08-12T04:52:11.842Z,21.10
2022-08-12T04:54:38.674Z,21.10
2022-08-12T04:57:05.898Z,21.10
2022-08-12T04:59:47.005Z,21.10
2022-08-12T05:02:21.331Z,21.10
2022-08-12T05:04:55.614Z,21.10
2022-08-12T05:07:23.010Z,21.10
2022-08-12T05:09:58.885Z,21.10
2022-08-12T05:12:34.188Z,21.10
2022-08-12T05:15:00.937Z,21.00
2022-08-12T05:17:28.042Z,21.10
2022-08-12T05:19:57.191Z,21.00
2022-08-12T05:22:27.917Z,21.10
2022-08-12T05:24:54.859Z,21.10
2022-08-12T05:27:22.809Z,21.10
2022-08-12T05:30:05.281Z,21.10
2022-08-12T05:32:36.341Z,21.00
2022-08-12T05:35:06.649Z,21.00
2022-08-12T05:37:34.667Z,21.10
2022-08-12T05:40:08.314Z,21.10
2022-08-12T05:42:37.749Z,21.00
2022-08-12T05:45:04.957Z,21.10
2022-08-12T05:47:40.689Z,21.10
2022-08-12T05:50:20.629Z,21.10
2022-08-12T05:52:48.087Z,21.10
2022-08-12T05:55:15.212Z,21.10
2022-08-12T05:57:42.245Z,21.10
2022-08-12T06:00:09.391Z,21.10
2022-08-12T06:02:36.084Z,21.10
2022-08-12T06:05:02.908Z,21.10
2022-08-12T06:07:59.277Z,21.10
2022-08-12T06:10:17.944Z,21.20
2022-08-12T06:13:02.287Z,21.20
2022-08-12T06:15:29.971Z,21.20
2022-08-12T06:18:13.653Z,21.20
2022-08-12T06:20:43.229Z,21.20
2022-08-12T06:23:10.670Z,21.20
2022-08-12T06:25:37.577Z,21.20
2022-08-12T06:28:14.405Z,21.30
2022-08-12T06:30:41.216Z,21.30
2022-08-12T06:33:22.254Z,21.30
2022-08-12T06:35:51.218Z,21.30
2022-08-12T06:38:19.890Z,21.40
2022-08-12T06:41:08.457Z,21.40
2022-08-12T06:44:04.995Z,21.50
2022-08-12T06:46:23.943Z,21.50
2022-08-12T06:48:58.791Z,21.50
2022-08-12T06:51:27.923Z,21.60
2022-08-12T06:53:55.998Z,21.60
2022-08-12T06:56:39.883Z,21.60
2022-08-12T06:59:13.949Z,21.70
2022-08-12T07:01:40.739Z,21.70
2022-08-12T07:04:35.764Z,21.80
2022-08-12T07:07:05.384Z,21.80
2022-08-12T07:10:03.676Z,21.80
2022-08-12T07:12:22.380Z,21.90
2022-08-12T07:14:52.630Z,22.00
2022-08-12T07:17:19.281Z,22.00
2022-08-12T07:19:48.638Z,22.10
2022-08-12T07:22:16.022Z,22.10
2022-08-12T07:24:42.701Z,22.20
2022-08-12T07:27:09.520Z,22.30
2022-08-12T07:30:03.936Z,22.40
2022-08-12T07:32:24.629Z,22.50
2022-08-12T07:34:54.503Z,22.60
2022-08-12T07:37:21.469Z,22.80
2022-08-12T07:39:50.107Z,22.90
2022-08-12T07:42:25.408Z,23.10
2022-08-12T07:44:53.228Z,23.30
2022-08-12T07:47:19.936Z,23.40
2022-08-12T07:50:05.461Z,23.60
2022-08-12T07:52:34.870Z,23.80
2022-08-12T07:55:03.335Z,24.00
2022-08-12T07:57:32.529Z,24.20
2022-08-12T08:00:03.659Z,24.40
2022-08-12T08:02:33.528Z,24.70
2022-08-12T08:05:00.644Z,24.90
2022-08-12T08:07:30.387Z,25.10
2022-08-12T08:09:59.420Z,25.40
2022-08-12T08:12:49.307Z,25.70
2022-08-12T08:15:16.719Z,26.00
2022-08-12T08:18:01.631Z,26.20
2022-08-12T08:20:45.534Z,26.60
2022-08-12T08:23:17.025Z,26.80
2022-08-12T08:25:45.147Z,27.10
2022-08-12T08:28:18.890Z,27.40
2022-08-12T08:30:47.759Z,27.70
2022-08-12T08:33:24.547Z,28.00
2022-08-12T08:36:05.228Z,28.30
2022-08-12T08:38:35.339Z,28.60
2022-08-12T08:42:14.155Z,28.90
2022-08-12T08:44:11.765Z,29.10
2022-08-12T08:46:40.856Z,29.50
2022-08-12T08:49:08.195Z,29.70
2022-08-12T08:51:35.208Z,30.10
2022-08-12T08:54:02.092Z,30.30
2022-08-12T08:56:31.913Z,30.60
2022-08-12T08:58:59.133Z,30.80
2022-08-12T09:01:26.544Z,31.10
2022-08-12T09:05:08.116Z,31.40
2022-08-12T09:06:55.835Z,31.60
2022-08-12T09:09:23.978Z,31.90
2022-08-12T09:12:12.184Z,32.20
2022-08-12T09:14:46.978Z,32.40
2022-08-12T09:17:21.006Z,32.70
2022-08-12T09:19:55.232Z,32.90
2022-08-12T09:22:28.576Z,33.10
2022-08-12T09:24:56.187Z,33.40
2022-08-12T09:27:57.818Z,33.60
2022-08-12T09:30:15.924Z,33.90
2022-08-12T09:33:03.919Z,34.10
2022-08-12T09:35:33.682Z,34.30
2022-08-12T09:38:25.595Z,34.60
2022-08-12T09:42:08.517Z,34.70
2022-08-12T09:44:05.503Z,35.10
2022-08-12T09:46:34.457Z,35.20
2022-08-12T09:49:04.107Z,35.50
2022-08-12T09:51:44.126Z,35.70
2022-08-12T09:54:32.724Z,35.80
2022-08-12T09:57:03.904Z,36.10
2022-08-12T10:00:17.601Z,36.30
2022-08-12T10:02:42.719Z,36.50
2022-08-12T10:05:13.989Z,36.70
2022-08-12T10:07:44.630Z,36.90
2022-08-12T10:10:23.033Z,37.10
2022-08-12T10:13:12.935Z,37.30
2022-08-12T10:16:00.976Z,37.50
2022-08-12T10:18:32.726Z,37.70
2022-08-12T10:21:09.463Z,37.90
2022-08-12T10:23:39.867Z,38.10
2022-08-12T10:26:37.771Z,38.20
2022-08-12T10:30:37.385Z,38.40
2022-08-12T10:32:45.021Z,38.60
2022-08-12T10:35:08.278Z,38.80
2022-08-12T10:38:34.721Z,39.10
2022-08-12T10:40:28.612Z,39.20
2022-08-12T10:43:16.836Z,39.40
2022-08-12T10:45:46.126Z,39.60
2022-08-12T10:48:21.380Z,39.70
2022-08-12T10:51:03.400Z,39.90
2022-08-12T10:53:44.075Z,40.10
2022-08-12T10:56:17.308Z,40.10
2022-08-12T10:58:46.949Z,40.40
2022-08-12T11:01:50.182Z,40.50
2022-08-12T11:04:23.561Z,40.70
2022-08-12T11:07:09.934Z,40.80
2022-08-12T11:09:41.720Z,41.00
2022-08-12T11:12:56.543Z,41.10
2022-08-12T11:15:19.273Z,41.30
2022-08-12T11:17:53.363Z,41.40
2022-08-12T11:20:30.509Z,41.60
2022-08-12T11:23:03.609Z,41.60
2022-08-12T11:25:56.826Z,41.80
2022-08-12T11:28:17.867Z,41.90
2022-08-12T11:31:00.388Z,42.00
2022-08-12T11:34:06.422Z,42.10
2022-08-12T11:36:13.989Z,42.20
2022-08-12T11:38:41.600Z,42.30
2022-08-12T11:41:09.694Z,42.50
2022-08-12T11:43:50.542Z,42.60
2022-08-12T11:46:22.865Z,42.60
2022-08-12T11:48:52.108Z,42.70
2022-08-12T11:51:20.704Z,42.80
2022-08-12T11:53:58.872Z,43.00
2022-08-12T11:56:38.923Z,43.00
2022-08-12T12:02:00.842Z,43.10
2022-08-12T12:04:30.001Z,43.20
2022-08-12T12:07:06.729Z,43.30
2022-08-12T12:09:51.877Z,43.40
2022-08-12T12:12:19.814Z,43.50
2022-08-12T12:14:54.795Z,43.60
2022-08-12T12:17:24.431Z,43.60
2022-08-12T12:19:53.011Z,43.60
2022-08-12T12:22:23.392Z,43.70
2022-08-12T12:24:54.016Z,43.80
2022-08-12T12:27:47.236Z,43.80
2022-08-12T12:30:19.725Z,43.90
2022-08-12T12:32:55.517Z,43.90
2022-08-12T12:36:06.011Z,43.90
2022-08-12T12:38:12.081Z,43.90
2022-08-12T12:40:41.441Z,44.00
2022-08-12T12:43:11.211Z,44.00
2022-08-12T12:45:44.650Z,44.00
2022-08-12T12:48:18.812Z,44.10
2022-08-12T12:51:48.428Z,44.10
2022-08-12T12:54:07.812Z,44.10
2022-08-12T12:56:40.322Z,44.20
2022-08-12T12:59:07.554Z,44.20
2022-08-12T13:01:55.183Z,44.30
2022-08-12T13:04:22.482Z,44.30
2022-08-12T13:06:52.017Z,44.30
2022-08-12T13:09:19.500Z,44.40
2022-08-12T13:11:53.234Z,44.30
2022-08-12T13:14:28.694Z,44.30
2022-08-12T13:17:02.858Z,44.40
2022-08-12T13:19:38.903Z,44.30
2022-08-12T13:22:18.624Z,44.40
2022-08-12T13:24:54.731Z,44.40
2022-08-12T13:27:34.456Z,44.40
2022-08-12T13:30:11.291Z,44.30
2022-08-12T13:32:56.813Z,44.30
2022-08-12T13:36:06.044Z,44.30
2022-08-12T13:38:34.962Z,44.20
2022-08-12T13:41:03.608Z,44.20
2022-08-12T13:43:41.065Z,44.10
2022-08-12T13:46:12.381Z,44.10
2022-08-12T13:48:44.700Z,44.10
2022-08-12T13:51:12.476Z,44.10
2022-08-12T13:53:58.379Z,44.10
2022-08-12T13:56:30.560Z,44.00
2022-08-12T13:59:05.495Z,44.00
2022-08-12T14:01:40.576Z,44.00
2022-08-12T14:04:11.691Z,44.00
2022-08-12T14:06:39.699Z,44.00
2022-08-12T14:09:17.526Z,44.00
2022-08-12T14:11:59.198Z,44.00
2022-08-12T14:14:31.605Z,43.90
2022-08-12T14:17:10.003Z,43.90
2022-08-12T14:19:48.794Z,43.90
2022-08-12T14:22:20.077Z,43.90
2022-08-12T14:24:46.724Z,43.80
2022-08-12T14:27:13.821Z,43.80
2022-08-12T14:30:05.082Z,43.80
2022-08-12T14:32:34.305Z,43.70
2022-08-12T14:35:03.379Z,43.70
2022-08-12T14:37:56.407Z,43.70
2022-08-12T14:40:18.498Z,43.60
2022-08-12T14:42:46.986Z,43.60
2022-08-12T14:45:14.320Z,43.60
2022-08-12T14:47:58.745Z,43.50
2022-08-12T14:50:58.890Z,43.40
2022-08-12T14:54:52.899Z,43.40
2022-08-12T14:59:20.336Z,43.20
2022-08-12T15:01:50.611Z,43.10
2022-08-12T15:04:22.453Z,43.00
2022-08-12T15:06:52.149Z,42.90
2022-08-12T15:09:19.503Z,42.90
2022-08-12T15:12:03.445Z,42.70
2022-08-12T15:14:31.464Z,42.60
2022-08-12T15:17:00.465Z,42.60
2022-08-12T15:20:10.925Z,42.40
2022-08-12T15:22:37.479Z,42.30
2022-08-12T15:25:03.481Z,42.20
2022-08-12T15:28:10.928Z,42.10
2022-08-12T15:30:26.612Z,41.90
2022-08-12T15:32:57.212Z,41.80
2022-08-12T15:35:27.439Z,41.60
2022-08-12T15:38:13.713Z,41.50
2022-08-12T15:40:49.299Z,41.30
2022-08-12T15:43:50.922Z,41.10
2022-08-12T15:46:15.903Z,41.00
2022-08-12T15:48:46.947Z,40.80
2022-08-12T15:51:58.600Z,40.60
2022-08-12T15:54:30.947Z,40.40
2022-08-12T15:57:05.987Z,40.10
2022-08-12T15:59:51.975Z,40.00
2022-08-12T16:02:22.718Z,39.80
2022-08-12T16:04:53.523Z,39.60
2022-08-12T16:07:30.094Z,39.40
2022-08-12T16:10:06.825Z,39.10
2022-08-12T16:12:43.420Z,39.00
2022-08-12T16:15:23.071Z,38.70
2022-08-12T16:18:19.187Z,38.60
2022-08-12T16:20:41.520Z,38.30
2022-08-12T16:23:26.152Z,38.10
2022-08-12T16:26:05.713Z,38.00
2022-08-12T16:28:40.428Z,37.80
2022-08-12T16:31:12.456Z,37.60
2022-08-12T16:34:00.012Z,37.50
2022-08-12T16:36:29.105Z,37.40
2022-08-12T16:38:55.733Z,37.10
2022-08-12T16:41:23.101Z,37.10
2022-08-12T16:43:50.462Z,36.90
2022-08-12T16:46:32.321Z,36.80
2022-08-12T16:49:09.291Z,36.70
2022-08-12T16:51:45.987Z,36.50
2022-08-12T16:54:16.419Z,36.40
2022-08-12T16:56:55.231Z,36.20
2022-08-12T16:59:31.119Z,36.10
2022-08-12T17:02:31.715Z,36.00
2022-08-12T17:05:03.533Z,35.80
2022-08-12T17:07:36.728Z,35.70
2022-08-12T17:10:06.684Z,35.60
2022-08-12T17:12:33.759Z,35.50
2022-08-12T17:15:25.697Z,35.40
2022-08-12T17:18:15.341Z,35.20
2022-08-12T17:20:47.361Z,35.10
2022-08-12T17:23:16.475Z,35.00
2022-08-12T17:25:52.044Z,34.90
2022-08-12T17:28:21.256Z,34.70
2022-08-12T17:30:59.481Z,34.60
2022-08-12T17:33:27.593Z,34.60
2022-08-12T17:35:58.367Z,34.40
2022-08-12T17:38:25.196Z,34.30
2022-08-12T17:40:51.922Z,34.20
2022-08-12T17:43:57.130Z,34.10
2022-08-12T17:46:12.885Z,34.00
2022-08-12T17:48:55.942Z,33.90
2022-08-12T17:51:25.262Z,33.80
2022-08-12T17:54:10.335Z,33.70
2022-08-12T17:56:40.619Z,33.60
2022-08-12T17:59:12.659Z,33.50
2022-08-12T18:01:45.438Z,33.40
2022-08-12T18:04:22.848Z,33.30
2022-08-12T18:07:01.699Z,33.10
2022-08-12T18:09:32.001Z,33.10
2022-08-12T18:12:24.465Z,32.90
2022-08-12T18:15:01.947Z,32.80
2022-08-12T18:17:30.300Z,32.70
2022-08-12T18:20:06.047Z,32.60
2022-08-12T18:22:34.959Z,32.50
2022-08-12T18:25:06.292Z,32.40
2022-08-12T18:27:47.144Z,32.30
2022-08-12T18:30:20.439Z,32.20
2022-08-12T18:33:03.454Z,32.10
2022-08-12T18:35:46.613Z,32.00
2022-08-12T18:38:20.684Z,31.90
2022-08-12T18:41:09.651Z,31.70
2022-08-12T18:44:00.071Z,31.60
2022-08-12T18:46:48.936Z,31.60
2022-08-12T18:49:39.204Z,31.50
2022-08-12T18:52:07.994Z,31.30
2022-08-12T18:54:41.569Z,31.20
2022-08-12T18:58:06.546Z,31.10
2022-08-12T19:00:21.301Z,31.00
2022-08-12T19:02:50.832Z,30.90
2022-08-12T19:05:17.711Z,30.80
2022-08-12T19:08:02.236Z,30.70
2022-08-12T19:10:31.687Z,30.60
2022-08-12T19:13:24.008Z,30.60
2022-08-12T19:15:53.617Z,30.40
2022-08-12T19:18:22.269Z,30.30
2022-08-12T19:20:50.738Z,30.20
2022-08-12T19:23:21.505Z,30.10
2022-08-12T19:25:59.845Z,30.00
2022-08-12T19:28:34.529Z,30.00
2022-08-12T19:31:56.660Z,29.90
2022-08-12T19:38:03.097Z,29.60
2022-08-12T19:40:31.613Z,29.60
2022-08-12T19:43:19.251Z,29.40
2022-08-12T19:45:53.596Z,29.40
2022-08-12T19:48:22.663Z,29.20
2022-08-12T19:50:53.371Z,29.20
2022-08-12T19:53:22.558Z,29.10
2022-08-12T19:55:54.237Z,29.00
2022-08-12T19:58:22.441Z,28.90
2022-08-12T20:00:53.063Z,28.90
2022-08-12T20:03:40.055Z,28.80
2022-08-12T20:06:23.517Z,28.70
2022-08-12T20:08:55.873Z,28.60
2022-08-12T20:12:13.269Z,28.50
2022-08-12T20:14:19.022Z,28.40
2022-08-12T20:16:51.609Z,28.30
2022-08-12T20:19:21.145Z,28.30
2022-08-12T20:21:50.267Z,28.10
2022-08-12T20:24:17.060Z,28.10
2022-08-12T20:26:46.890Z,28.10
2022-08-12T20:29:16.597Z,28.00
2022-08-12T20:31:44.305Z,27.90
2022-08-12T20:34:12.487Z,27.90
2022-08-12T20:36:44.111Z,27.70
2022-08-12T20:39:35.905Z,27.70
2022-08-12T20:42:04.047Z,27.60
2022-08-12T20:44:39.791Z,27.60
2022-08-12T20:47:16.672Z,27.50
2022-08-12T20:49:46.274Z,27.50
2022-08-12T20:52:18.399Z,27.40
2022-08-12T20:54:52.751Z,27.30
2022-08-12T20:57:21.524Z,27.20
2022-08-12T20:59:51.772Z,27.10
2022-08-12T21:02:24.342Z,27.10
2022-08-12T21:05:19.987Z,27.00
2022-08-12T21:07:51.943Z,26.90
2022-08-12T21:10:20.782Z,26.90
2022-08-12T21:12:48.609Z,26.80
2022-08-12T21:15:18.056Z,26.70
2022-08-12T21:18:11.420Z,26.70
2022-08-12T21:20:52.327Z,26.60
2022-08-12T21:23:22.558Z,26.60
2022-08-12T21:25:51.209Z,26.50
2022-08-12T21:28:20.394Z,26.40
2022-08-12T21:31:11.320Z,26.40
2022-08-12T21:33:58.661Z,26.30
2022-08-12T21:36:32.345Z,26.20
2022-08-12T21:39:20.663Z,26.10
2022-08-12T21:41:51.189Z,26.10
2022-08-12T21:44:24.685Z,26.00
2022-08-12T21:47:20.951Z,25.90
2022-08-12T21:50:02.343Z,25.90
2022-08-12T21:52:40.446Z,25.80
2022-08-12T21:55:17.779Z,25.70
2022-08-12T21:57:50.486Z,25.60
2022-08-12T22:00:19.973Z,25.60
2022-08-12T22:03:05.137Z,25.60
2022-08-12T22:05:50.435Z,25.40
2022-08-12T22:08:22.051Z,25.40
2022-08-12T22:10:52.545Z,25.30
2022-08-12T22:14:08.043Z,25.20
2022-08-12T22:16:11.674Z,25.20
2022-08-12T22:18:40.847Z,25.10
2022-08-12T22:21:09.081Z,25.10
2022-08-12T22:24:04.155Z,25.00
2022-08-12T22:26:29.226Z,24.90
2022-08-12T22:29:22.664Z,24.90
2022-08-12T22:31:49.568Z,24.80
2022-08-12T22:34:18.365Z,24.70
2022-08-12T22:36:45.581Z,24.70
2022-08-12T22:39:15.957Z,24.70
2022-08-12T22:42:01.391Z,24.60
2022-08-12T22:44:54.943Z,24.60
2022-08-12T22:47:45.779Z,24.50
2022-08-12T22:50:27.477Z,24.40
2022-08-12T22:53:16.429Z,24.40
2022-08-12T22:55:59.986Z,24.30
2022-08-12T22:58:33.546Z,24.20
2022-08-12T23:01:02.607Z,24.20
2022-08-12T23:03:48.282Z,24.10
2022-08-12T23:06:19.401Z,24.10
2022-08-12T23:08:46.373Z,24.10
2022-08-12T23:11:13.141Z,24.00
2022-08-12T23:13:48.483Z,24.00
2022-08-12T23:16:27.912Z,23.90
2022-08-12T23:19:01.722Z,23.90
2022-08-12T23:22:05.677Z,23.80
2022-08-12T23:24:38.911Z,23.80
2022-08-12T23:27:43.976Z,23.70
2022-08-12T23:30:18.914Z,23.70
2022-08-12T23:32:54.662Z,23.60
2022-08-12T23:35:28.448Z,23.60
2022-08-12T23:38:30.733Z,23.60
2022-08-12T23:40:59.614Z,23.60
2022-08-12T23:43:26.546Z,23.50
2022-08-12T23:46:10.928Z,23.50
2022-08-12T23:48:38.142Z,23.50
2022-08-12T23:51:23.736Z,23.40
2022-08-12T23:53:54.956Z,23.40
2022-08-12T23:56:23.870Z,23.30
2022-08-12T23:58:54.993Z,23.30
